createdAt,value
2023-03-22T00:01:44.033Z,100.00
2023-03-22T00:04:29.566Z,100.00
2023-03-22T00:07:14.923Z,100.00
2023-03-22T00:10:00.539Z,100.00
2023-03-22T00:12:46.570Z,100.00
2023-03-22T00:15:32.015Z,100.00
2023-03-22T00:18:19.026Z,100.00
2023-03-22T00:21:04.591Z,100.00
2023-03-22T00:23:50.761Z,100.00
2023-03-22T00:26:36.149Z,100.00
2023-03-22T00:29:22.752Z,100.00
2023-03-22T00:32:07.842Z,100.00
2023-03-22T00:34:53.297Z,100.00
2023-03-22T00:37:38.864Z,100.00
2023-03-22T00:40:24.079Z,100.00
2023-03-22T00:43:09.536Z,100.00
2023-03-22T00:45:54.755Z,100.00
2023-03-22T00:48:40.156Z,100.00
2023-03-22T00:51:25.503Z,100.00
2023-03-22T00:54:10.880Z,100.00
2023-03-22T00:56:56.479Z,100.00
2023-03-22T00:59:42.860Z,100.00
2023-03-22T01:02:29.649Z,100.00
2023-03-22T01:05:15.831Z,100.00
2023-03-22T01:08:08.229Z,100.00
2023-03-22T01:10:53.710Z,100.00
2023-03-22T01:13:39.368Z,100.00
2023-03-22T01:16:24.588Z,100.00
2023-03-22T01:19:10.296Z,100.00
2023-03-22T01:21:55.626Z,100.00
2023-03-22T01:24:41.322Z,100.00
2023-03-22T01:27:26.824Z,100.00
2023-03-22T01:30:12.761Z,100.00
2023-03-22T01:32:57.825Z,100.00
2023-03-22T01:35:43.498Z,100.00
2023-03-22T01:38:29.774Z,100.00
2023-03-22T01:41:19.199Z,100.00
2023-03-22T01:44:15.889Z,100.00
2023-03-22T01:47:01.524Z,100.00
2023-03-22T01:49:47.292Z,100.00
2023-03-22T01:52:32.723Z,100.00
2023-03-22T01:55:23.295Z,100.00
2023-03-22T01:58:18.058Z,100.00
2023-03-22T02:01:11.530Z,100.00
2023-03-22T02:04:12.197Z,100.00
2023-03-22T02:06:58.834Z,100.00
2023-03-22T02:09:48.073Z,100.00
2023-03-22T02:12:52.856Z,100.00
2023-03-22T02:16:22.449Z,100.00
2023-03-22T02:19:45.402Z,100.00
2023-03-22T02:22:46.654Z,100.00
2023-03-22T02:26:14.457Z,100.00
2023-03-22T02:29:19.175Z,100.00
2023-03-22T02:32:46.570Z,100.00
2023-03-22T02:35:46.167Z,99.87
2023-03-22T02:38:48.638Z,99.76
2023-03-22T02:41:50.691Z,99.42
2023-03-22T02:44:45.522Z,99.26
2023-03-22T02:47:39.653Z,99.24
2023-03-22T02:50:30.786Z,99.09
2023-03-22T02:53:45.462Z,99.26
2023-03-22T02:56:51.545Z,98.70
2023-03-22T02:59:39.788Z,98.73
2023-03-22T03:02:28.049Z,98.43
2023-03-22T03:05:14.875Z,98.43
2023-03-22T03:08:02.543Z,98.38
2023-03-22T03:10:50.212Z,98.29
2023-03-22T03:13:35.855Z,98.24
2023-03-22T03:16:26.538Z,98.44
2023-03-22T03:19:25.407Z,98.13
2023-03-22T03:22:27.858Z,98.18
2023-03-22T03:25:22.803Z,98.38
2023-03-22T03:28:14.944Z,98.28
2023-03-22T03:31:07.845Z,98.52
2023-03-22T03:34:25.532Z,98.65
2023-03-22T03:37:18.524Z,99.09
2023-03-22T03:40:10.730Z,98.51
2023-03-22T03:42:59.818Z,98.54
2023-03-22T03:45:45.651Z,98.55
2023-03-22T03:48:34.133Z,98.16
2023-03-22T03:51:19.784Z,98.31
2023-03-22T03:54:05.000Z,97.71
2023-03-22T03:56:50.814Z,97.50
2023-03-22T03:59:36.363Z,97.13
2023-03-22T04:02:29.214Z,96.83
2023-03-22T04:05:18.272Z,96.65
2023-03-22T04:08:03.690Z,96.55
2023-03-22T04:10:52.105Z,96.42
2023-03-22T04:13:39.044Z,96.08
2023-03-22T04:16:29.565Z,95.92
2023-03-22T04:19:15.344Z,95.82
2023-03-22T04:22:00.962Z,95.69
2023-03-22T04:24:49.999Z,95.50
2023-03-22T04:27:36.683Z,95.51
2023-03-22T04:30:27.446Z,95.45
2023-03-22T04:33:32.373Z,94.78
2023-03-22T04:36:39.501Z,94.55
2023-03-22T04:39:42.630Z,94.54
2023-03-22T04:42:47.161Z,94.74
2023-03-22T04:45:39.181Z,94.84
2023-03-22T04:48:27.952Z,94.62
2023-03-22T04:51:14.092Z,94.29
2023-03-22T04:54:08.585Z,94.37
2023-03-22T04:56:57.392Z,94.41
2023-03-22T04:59:45.354Z,94.18
2023-03-22T05:02:31.209Z,94.28
2023-03-22T05:05:16.551Z,94.18
2023-03-22T05:08:02.901Z,94.25
2023-03-22T05:10:48.265Z,94.13
2023-03-22T05:13:34.309Z,94.21
2023-03-22T05:16:19.680Z,94.12
2023-03-22T05:19:14.046Z,93.84
2023-03-22T05:22:03.410Z,93.61
2023-03-22T05:25:10.707Z,92.86
2023-03-22T05:28:01.592Z,92.93
2023-03-22T05:31:14.501Z,92.45
2023-03-22T05:34:10.121Z,92.50
2023-03-22T05:36:57.664Z,92.37
2023-03-22T05:39:48.214Z,91.75
2023-03-22T05:42:33.618Z,91.79
2023-03-22T05:45:22.725Z,92.16
2023-03-22T05:48:17.974Z,92.04
2023-03-22T05:51:08.375Z,91.84
2023-03-22T05:53:54.393Z,92.02
2023-03-22T05:56:44.158Z,91.36
2023-03-22T05:59:29.321Z,91.47
2023-03-22T06:02:14.715Z,91.13
2023-03-22T06:04:59.766Z,91.30
2023-03-22T06:07:45.061Z,90.68
2023-03-22T06:10:34.822Z,90.53
2023-03-22T06:13:20.748Z,90.43
2023-03-22T06:16:08.804Z,90.20
2023-03-22T06:18:54.009Z,90.47
2023-03-22T06:21:39.501Z,90.31
2023-03-22T06:24:25.543Z,89.94
2023-03-22T06:27:11.185Z,90.05
2023-03-22T06:29:58.340Z,89.83
2023-03-22T06:32:45.153Z,89.99
2023-03-22T06:35:31.550Z,89.59
2023-03-22T06:38:18.529Z,89.49
2023-03-22T06:41:03.981Z,88.98
2023-03-22T06:43:49.418Z,88.75
2023-03-22T06:46:52.982Z,89.22
2023-03-22T06:50:01.099Z,88.23
2023-03-22T06:53:06.468Z,88.21
2023-03-22T06:55:54.951Z,87.95
2023-03-22T06:58:42.772Z,88.21
2023-03-22T07:01:28.384Z,87.82
2023-03-22T07:04:14.388Z,87.40
2023-03-22T07:07:05.589Z,87.56
2023-03-22T07:10:12.977Z,87.17
2023-03-22T07:12:58.142Z,86.90
2023-03-22T07:15:43.923Z,86.83
2023-03-22T07:18:40.739Z,86.39
2023-03-22T07:21:26.864Z,86.62
2023-03-22T07:24:18.702Z,86.09
2023-03-22T07:27:04.862Z,85.74
2023-03-22T07:29:51.917Z,85.50
2023-03-22T07:32:40.601Z,84.64
2023-03-22T07:35:31.983Z,85.08
2023-03-22T07:38:17.305Z,84.64
2023-03-22T07:41:02.976Z,84.33
2023-03-22T07:44:17.205Z,83.83
2023-03-22T07:47:13.754Z,84.04
2023-03-22T07:50:05.241Z,83.58
2023-03-22T07:52:51.620Z,82.60
2023-03-22T07:55:38.011Z,82.61
2023-03-22T07:58:23.501Z,81.85
2023-03-22T08:01:09.455Z,81.33
2023-03-22T08:04:13.399Z,80.30
2023-03-22T08:07:09.883Z,80.34
2023-03-22T08:09:58.279Z,80.24
2023-03-22T08:12:44.011Z,79.13
2023-03-22T08:15:37.381Z,79.00
2023-03-22T08:18:23.426Z,78.88
2023-03-22T08:21:08.504Z,78.15
2023-03-22T08:23:54.785Z,78.07
2023-03-22T08:27:02.313Z,77.58
2023-03-22T08:29:58.709Z,77.60
2023-03-22T08:32:44.252Z,77.57
2023-03-22T08:35:29.492Z,76.93
2023-03-22T08:38:14.916Z,75.81
2023-03-22T08:41:05.390Z,76.00
2023-03-22T08:43:50.823Z,76.03
2023-03-22T08:46:36.340Z,75.53
2023-03-22T08:49:22.918Z,75.43
2023-03-22T08:52:16.300Z,74.78
2023-03-22T08:55:17.279Z,74.36
2023-03-22T08:58:21.921Z,73.73
2023-03-22T09:01:32.885Z,73.93
2023-03-22T09:04:21.200Z,73.39
2023-03-22T09:07:06.680Z,72.88
2023-03-22T09:09:52.255Z,72.70
2023-03-22T09:12:38.644Z,72.23
2023-03-22T09:15:24.186Z,71.46
2023-03-22T09:18:27.462Z,71.84
2023-03-22T09:21:16.525Z,70.44
2023-03-22T09:24:09.659Z,70.34
2023-03-22T09:27:00.805Z,70.51
2023-03-22T09:29:46.180Z,70.08
2023-03-22T09:32:34.913Z,70.16
2023-03-22T09:35:22.699Z,69.34
2023-03-22T09:38:21.458Z,69.21
2023-03-22T09:41:13.067Z,68.86
2023-03-22T09:44:06.405Z,81.77
2023-03-22T09:46:58.918Z,72.87
2023-03-22T09:49:53.672Z,68.92
2023-03-22T09:52:40.771Z,68.89
2023-03-22T09:55:50.416Z,67.26
2023-03-22T09:58:55.224Z,63.96
2023-03-22T10:01:48.083Z,62.64
2023-03-22T10:04:36.636Z,58.93
2023-03-22T10:07:52.591Z,59.57
2023-03-22T10:10:43.061Z,58.88
2023-03-22T10:13:39.589Z,58.85
2023-03-22T10:16:33.129Z,62.26
2023-03-22T10:19:54.004Z,60.42
2023-03-22T10:22:44.116Z,62.29
2023-03-22T10:25:41.237Z,62.03
2023-03-22T10:28:39.616Z,62.01
2023-03-22T10:31:27.956Z,64.55
2023-03-22T10:34:24.554Z,58.83
2023-03-22T10:37:33.353Z,58.27
2023-03-22T10:40:24.671Z,57.35
2023-03-22T10:43:23.298Z,55.53
2023-03-22T10:46:17.853Z,55.96
2023-03-22T10:49:04.963Z,55.41
2023-03-22T10:51:54.391Z,55.34
2023-03-22T10:54:40.474Z,56.41
2023-03-22T10:57:28.375Z,56.40
2023-03-22T11:00:17.498Z,56.59
2023-03-22T11:03:05.420Z,57.43
2023-03-22T11:06:13.495Z,57.90
2023-03-22T11:09:26.381Z,55.67
2023-03-22T11:12:13.135Z,56.09
2023-03-22T11:14:58.925Z,55.99
2023-03-22T11:17:44.433Z,55.97
2023-03-22T11:20:31.123Z,55.98
2023-03-22T11:23:17.972Z,56.11
2023-03-22T11:26:12.238Z,54.93
2023-03-22T11:29:05.462Z,55.05
2023-03-22T11:31:59.120Z,54.85
2023-03-22T11:34:46.446Z,55.40
2023-03-22T11:37:31.983Z,55.46
2023-03-22T11:40:29.670Z,54.95
2023-03-22T11:43:24.752Z,54.42
2023-03-22T11:46:12.217Z,53.62
2023-03-22T11:49:04.562Z,53.50
2023-03-22T11:51:50.004Z,52.85
2023-03-22T11:54:36.844Z,51.74
2023-03-22T11:57:33.992Z,52.17
2023-03-22T12:00:32.338Z,52.38
2023-03-22T12:03:23.035Z,51.46
2023-03-22T12:06:34.813Z,50.89
2023-03-22T12:09:44.587Z,51.64
2023-03-22T12:12:35.957Z,51.56
2023-03-22T12:15:24.278Z,51.59
2023-03-22T12:18:19.935Z,51.60
2023-03-22T12:21:05.624Z,51.71
2023-03-22T12:24:03.512Z,50.89
2023-03-22T12:26:54.195Z,50.48
2023-03-22T12:29:45.701Z,51.08
2023-03-22T12:32:38.611Z,50.58
2023-03-22T12:35:29.428Z,50.80
2023-03-22T12:38:28.110Z,50.10
2023-03-22T12:41:17.845Z,50.49
2023-03-22T12:44:12.640Z,50.09
2023-03-22T12:47:03.368Z,50.39
2023-03-22T12:50:15.347Z,50.99
2023-03-22T12:53:02.372Z,51.33
2023-03-22T12:55:49.339Z,50.50
2023-03-22T12:58:36.804Z,49.43
2023-03-22T13:01:39.609Z,49.29
2023-03-22T13:04:37.640Z,49.35
2023-03-22T13:07:31.789Z,50.21
2023-03-22T13:10:40.421Z,50.45
2023-03-22T13:13:29.154Z,49.41
2023-03-22T13:16:14.850Z,48.98
2023-03-22T13:19:02.159Z,49.16
2023-03-22T13:21:51.038Z,49.02
2023-03-22T13:25:16.879Z,50.21
2023-03-22T13:28:20.221Z,50.10
2023-03-22T13:31:06.511Z,49.48
2023-03-22T13:33:53.422Z,48.99
2023-03-22T13:36:39.545Z,48.25
2023-03-22T13:39:27.261Z,48.60
2023-03-22T13:42:20.980Z,48.29
2023-03-22T13:45:31.909Z,48.55
2023-03-22T13:48:43.838Z,48.69
2023-03-22T13:51:31.984Z,49.40
2023-03-22T13:54:24.492Z,49.92
2023-03-22T13:57:37.651Z,49.04
2023-03-22T14:00:29.320Z,49.09
2023-03-22T14:03:23.008Z,48.43
2023-03-22T14:06:14.828Z,49.11
2023-03-22T14:09:24.052Z,48.70
2023-03-22T14:12:46.887Z,48.56
2023-03-22T14:15:41.269Z,47.58
2023-03-22T14:18:29.409Z,47.62
2023-03-22T14:21:34.688Z,47.47
